Terminal Aerodrome Forecast
Issued by NWS Detroit/Pontiac, MI

Home | Current Version | Previous Version | Text Only | Print | Product List | Glossary On
Versions: 1 2 3 4 5 6 7 8 9 10 11 12 13 14 15 16 17 18 19 20 21 22 23 24 25 26
000
FTUS43 KDTX 250520
TAFFNT
TAF
KFNT 250520Z 2506/2606 16005KT P6SM SCT150 BKN250
     FM251600 15006KT P6SM SCT050 OVC080
     FM260000 11008KT P6SM BKN035 OVC050
     FM260400 04010KT 6SM -RA OVC028=

USA.gov is the U.S. government's official web portal to all federal, state and local government web resources and services.